Time;durP1;ratioP1;P1;durP2;ratioP2;P2;SDS_P1;SDS_P2;PMS_P1;PMS_P2;Temp;Humidity;BMP_temperature;BMP_pressure;BME280_temperature;BME280_humidity;BME280_pressure;Samples;Min_cycle;Max_cycle;Signal;HPM_P1;HPM_P2
2021/06/09 00:00:10;;;;;;;17.52;16.67;;;12.10;99.90;;;;;;5093231;28;20503;-52
2021/06/09 00:02:37;;;;;;;18.30;17.27;;;12.10;99.90;;;;;;5093087;28;20031;-53
2021/06/09 00:05:06;;;;;;;17.30;16.40;;;12.30;99.90;;;;;;5093557;28;20030;-52
2021/06/09 00:07:33;;;;;;;16.00;15.30;;;12.30;99.90;;;;;;5093280;28;20024;-50
2021/06/09 00:10:01;;;;;;;15.52;14.93;;;12.20;99.90;;;;;;5093120;28;20035;-54
2021/06/09 00:12:28;;;;;;;15.40;14.80;;;12.40;99.90;;;;;;5093174;28;20017;-53
2021/06/09 00:14:56;;;;;;;14.32;13.43;;;12.50;99.90;;;;;;5093111;28;20035;-51
2021/06/09 00:17:23;;;;;;;13.60;13.10;;;12.50;99.90;;;;;;5093118;28;20020;-50
2021/06/09 00:19:50;;;;;;;12.55;12.05;;;12.60;99.90;;;;;;5093059;28;20039;-49
2021/06/09 00:22:18;;;;;;;10.75;10.35;;;12.50;99.90;;;;;;5092968;28;20027;-54
2021/06/09 00:24:46;;;;;;;8.90;8.50;;;12.40;99.90;;;;;;5092933;28;20020;-49
2021/06/09 00:27:13;;;;;;;9.20;8.90;;;12.40;99.90;;;;;;5092940;28;20577;-50
2021/06/09 00:29:41;;;;;;;8.60;8.10;;;12.50;99.90;;;;;;5091437;28;20362;-50
2021/06/09 00:32:08;;;;;;;6.88;6.68;;;12.60;99.90;;;;;;5093004;28;20043;-49
2021/06/09 00:34:35;;;;;;;6.10;5.90;;;12.50;99.90;;;;;;5092955;28;20430;-48
2021/06/09 00:37:03;;;;;;;5.28;5.07;;;12.50;99.90;;;;;;5095628;28;20056;-53
2021/06/09 00:39:30;;;;;;;5.10;4.90;;;12.50;99.90;;;;;;5097237;28;20447;-51
2021/06/09 00:41:58;;;;;;;4.30;4.20;;;12.70;99.90;;;;;;5097317;28;20050;-52
2021/06/09 00:44:26;;;;;;;3.70;3.60;;;12.80;99.70;;;;;;5097090;28;20123;-49
2021/06/09 00:46:53;;;;;;;3.75;3.65;;;12.70;99.40;;;;;;5097163;28;20027;-50
2021/06/09 00:49:20;;;;;;;3.60;3.50;;;12.80;99.20;;;;;;5097081;28;20099;-48
2021/06/09 00:51:47;;;;;;;3.80;3.70;;;12.80;99.00;;;;;;5097074;28;20020;-50
2021/06/09 00:54:15;;;;;;;3.50;3.30;;;12.80;99.30;;;;;;5096686;28;20043;-54
2021/06/09 00:56:45;;;;;;;3.92;3.72;;;12.90;98.90;;;;;;5096823;28;20027;-47
2021/06/09 00:59:13;;;;;;;3.70;3.60;;;12.90;99.50;;;;;;5096916;28;20039;-52
2021/06/09 01:01:40;;;;;;;4.72;4.40;;;12.90;99.00;;;;;;5096854;28;20027;-50
2021/06/09 01:04:07;;;;;;;3.90;3.60;;;12.90;98.70;;;;;;5096782;28;20031;-52
2021/06/09 01:06:35;;;;;;;3.33;3.10;;;13.00;98.20;;;;;;5096830;28;20027;-51
2021/06/09 01:09:02;;;;;;;3.72;3.53;;;13.10;98.50;;;;;;5096732;28;20102;-51
2021/06/09 01:11:30;;;;;;;3.70;3.60;;;13.20;98.10;;;;;;5095411;28;20024;-51
2021/06/09 01:13:57;;;;;;;3.50;3.40;;;13.30;98.00;;;;;;5096586;28;20035;-51
2021/06/09 01:16:25;;;;;;;3.55;3.38;;;13.30;97.60;;;;;;5096546;28;20498;-52
2021/06/09 01:18:54;;;;;;;3.35;3.25;;;13.20;98.30;;;;;;5095322;28;20035;-48
2021/06/09 01:21:33;;;;;;;3.60;3.50;;;13.30;97.80;;;;;;5096541;28;20027;-52
2021/06/09 01:24:01;;;;;;;3.20;3.10;;;13.40;96.80;;;;;;5096479;28;20026;-52
2021/06/09 01:26:30;;;;;;;3.30;3.20;;;13.50;97.60;;;;;;5096251;28;20111;-52
2021/06/09 01:29:00;;;;;;;2.58;2.47;;;13.60;97.80;;;;;;5095021;28;20039;-52
2021/06/09 01:31:28;;;;;;;4.07;2.83;;;13.40;96.70;;;;;;5096211;28;20491;-54
2021/06/09 01:34:03;;;;;;;2.80;2.70;;;13.40;96.70;;;;;;5096150;28;20016;-53
2021/06/09 01:36:31;;;;;;;2.78;2.58;;;13.50;96.90;;;;;;5096120;28;20102;-50
2021/06/09 01:38:59;;;;;;;2.50;2.40;;;13.40;97.20;;;;;;5096069;28;20024;-49
2021/06/09 01:41:26;;;;;;;3.45;3.30;;;13.40;97.70;;;;;;5096005;28;20024;-54
2021/06/09 01:43:55;;;;;;;2.70;2.60;;;13.60;98.60;;;;;;5095816;28;20504;-52
2021/06/09 01:46:23;;;;;;;3.03;2.92;;;13.40;96.00;;;;;;5095688;28;20028;-52
2021/06/09 01:48:52;;;;;;;3.00;2.90;;;13.30;96.20;;;;;;5095678;28;20030;-52
2021/06/09 01:51:20;;;;;;;3.20;3.00;;;13.30;96.10;;;;;;5095903;28;20103;-50
2021/06/09 01:53:48;;;;;;;3.10;3.00;;;13.40;96.50;;;;;;5095989;28;20089;-52
2021/06/09 01:56:16;;;;;;;3.80;3.63;;;13.50;95.90;;;;;;5095702;28;20081;-53
2021/06/09 01:58:44;;;;;;;3.60;3.50;;;13.70;96.80;;;;;;5095726;28;20020;-52
2021/06/09 02:01:12;;;;;;;3.30;3.20;;;13.70;96.30;;;;;;5095640;28;20384;-49
2021/06/09 02:03:40;;;;;;;3.50;3.40;;;13.80;95.80;;;;;;5095716;28;20370;-51
2021/06/09 02:06:07;;;;;;;3.42;3.30;;;13.70;95.90;;;;;;5095482;28;20511;-49
2021/06/09 02:08:35;;;;;;;3.67;3.50;;;13.50;95.70;;;;;;5095529;28;20016;-51
2021/06/09 02:11:02;;;;;;;3.00;2.90;;;13.60;96.10;;;;;;5095538;28;20484;-51
2021/06/09 02:13:31;;;;;;;3.08;2.80;;;13.60;95.10;;;;;;5095482;28;20031;-51
2021/06/09 02:16:00;;;;;;;3.20;3.00;;;13.50;95.60;;;;;;5095439;28;20070;-52
2021/06/09 02:18:29;;;;;;;2.90;2.80;;;13.80;95.60;;;;;;5095416;28;20051;-50
2021/06/09 02:20:59;;;;;;;2.90;2.80;;;13.90;95.70;;;;;;5095401;28;20047;-53
2021/06/09 02:23:32;;;;;;;3.10;2.90;;;13.90;95.20;;;;;;5095383;28;20069;-53
2021/06/09 02:26:01;;;;;;;2.80;2.70;;;14.10;95.90;;;;;;5095142;28;20071;-54
2021/06/09 02:28:33;;;;;;;2.50;2.40;;;14.00;94.70;;;;;;5095221;28;20016;-51
2021/06/09 02:31:01;;;;;;;2.72;2.63;;;14.10;95.50;;;;;;5095104;28;20032;-48
2021/06/09 02:33:29;;;;;;;3.00;2.80;;;14.00;94.80;;;;;;5094922;28;20030;-52
2021/06/09 02:35:58;;;;;;;2.80;2.60;;;14.20;95.60;;;;;;5094958;28;20051;-48
2021/06/09 02:38:26;;;;;;;2.60;2.50;;;14.00;94.80;;;;;;5094712;28;20063;-51
2021/06/09 02:40:56;;;;;;;2.80;2.70;;;13.90;93.80;;;;;;5094938;28;20452;-49
2021/06/09 02:43:30;;;;;;;2.97;2.88;;;14.10;94.10;;;;;;5094498;28;20047;-52
2021/06/09 02:46:13;;;;;;;2.90;2.80;;;14.20;94.70;;;;;;5094687;28;20032;-51
2021/06/09 02:48:47;;;;;;;2.90;2.80;;;14.20;93.70;;;;;;5094889;28;20061;-48
2021/06/09 02:51:20;;;;;;;3.60;3.00;;;14.20;93.90;;;;;;5093456;28;20059;-52
2021/06/09 02:54:17;;;;;;;3.00;2.90;;;14.20;94.80;;;;;;5094677;28;20020;-52
2021/06/09 02:56:58;;;;;;;3.10;3.00;;;14.40;95.70;;;;;;5072477;28;20036;-50
2021/06/09 02:59:56;;;;;;;3.45;3.15;;;14.20;94.70;;;;;;5093405;28;20035;-51
2021/06/09 03:02:52;;;;;;;2.90;2.72;;;13.80;95.80;;;;;;5094210;28;20067;-48
2021/06/09 03:05:27;;;;;;;2.80;2.70;;;14.00;95.90;;;;;;5094435;28;20047;-50
2021/06/09 03:08:04;;;;;;;3.03;2.88;;;14.10;93.90;;;;;;5094143;28;20016;-49
2021/06/09 03:10:53;;;;;;;3.17;2.97;;;13.70;95.20;;;;;;5094434;28;20119;-48
2021/06/09 03:13:28;;;;;;;2.70;2.50;;;13.70;95.20;;;;;;5094286;28;20019;-49
2021/06/09 03:16:21;;;;;;;3.10;3.00;;;13.60;95.30;;;;;;5094183;28;20051;-49
2021/06/09 03:18:51;;;;;;;2.72;2.63;;;13.90;96.10;;;;;;5092824;28;20031;-51
2021/06/09 03:21:26;;;;;;;3.00;2.90;;;13.90;94.60;;;;;;5094170;28;20093;-52
2021/06/09 03:24:28;;;;;;;3.03;2.92;;;13.70;94.00;;;;;;5094101;28;20218;-50
2021/06/09 03:27:03;;;;;;;2.80;2.70;;;13.80;95.00;;;;;;5094146;28;20172;-52
2021/06/09 03:29:39;;;;;;;2.80;2.70;;;13.80;95.40;;;;;;5094108;28;20055;-49
2021/06/09 03:32:40;;;;;;;3.25;2.95;;;13.70;94.20;;;;;;5093991;28;20099;-52
2021/06/09 03:35:28;;;;;;;3.20;3.00;;;13.60;94.40;;;;;;5049250;28;20374;-52
2021/06/09 03:37:58;;;;;;;3.10;3.00;;;13.90;94.10;;;;;;5093979;28;20024;-50
2021/06/09 03:40:37;;;;;;;3.10;3.00;;;13.80;94.40;;;;;;5093820;28;20491;-48
2021/06/09 03:43:08;;;;;;;2.88;2.78;;;14.00;94.00;;;;;;5093632;28;20082;-52
2021/06/09 03:45:48;;;;;;;2.90;2.80;;;14.00;94.30;;;;;;5093703;28;20044;-54
2021/06/09 03:48:19;;;;;;;2.80;2.70;;;14.20;94.30;;;;;;5093704;28;20036;-51
2021/06/09 03:50:48;;;;;;;2.80;2.70;;;14.30;95.20;;;;;;5093503;28;20020;-52
2021/06/09 03:53:15;;;;;;;2.70;2.60;;;14.40;95.20;;;;;;5093579;28;20072;-50
2021/06/09 03:55:47;;;;;;;3.05;2.90;;;14.40;95.10;;;;;;5093507;28;20098;-53
2021/06/09 03:58:17;;;;;;;2.88;2.78;;;14.50;94.50;;;;;;5093549;28;20039;-50
2021/06/09 04:00:47;;;;;;;2.92;2.83;;;14.60;94.80;;;;;;5093325;28;20032;-52
2021/06/09 04:03:18;;;;;;;3.10;3.00;;;14.40;93.30;;;;;;5093495;28;20056;-50
2021/06/09 04:05:46;;;;;;;2.97;2.88;;;14.40;93.20;;;;;;5093392;28;20028;-51
2021/06/09 04:08:15;;;;;;;3.25;3.05;;;14.60;93.90;;;;;;5093346;28;20480;-49
2021/06/09 04:10:45;;;;;;;3.50;3.30;;;14.70;92.80;;;;;;5093064;28;20028;-51
2021/06/09 04:13:13;;;;;;;3.65;3.55;;;14.80;93.50;;;;;;5093294;28;20089;-49
2021/06/09 04:15:42;;;;;;;3.83;3.72;;;14.60;94.40;;;;;;5093212;28;20366;-53
2021/06/09 04:18:09;;;;;;;3.38;3.28;;;14.60;94.30;;;;;;5093216;28;20051;-50
2021/06/09 04:20:38;;;;;;;3.60;3.50;;;14.10;94.80;;;;;;5093179;28;20024;-50
2021/06/09 04:23:06;;;;;;;3.60;3.50;;;13.80;96.20;;;;;;5093247;28;20050;-49
2021/06/09 04:25:33;;;;;;;3.20;3.10;;;13.80;95.80;;;;;;5092884;28;20060;-51
2021/06/09 04:28:03;;;;;;;3.10;3.00;;;13.90;96.00;;;;;;5093055;28;20020;-46
2021/06/09 04:30:31;;;;;;;3.10;3.00;;;14.10;96.00;;;;;;5093259;28;20028;-49
2021/06/09 04:33:04;;;;;;;3.13;3.03;;;14.30;96.30;;;;;;5093064;28;20023;-51
2021/06/09 04:35:46;;;;;;;3.17;2.97;;;14.30;96.80;;;;;;5091844;28;20547;-52
2021/06/09 04:38:18;;;;;;;2.83;2.72;;;14.10;95.70;;;;;;5092893;28;20032;-49
2021/06/09 04:40:49;;;;;;;2.70;2.60;;;13.80;97.00;;;;;;5093479;28;20430;-52
2021/06/09 04:43:17;;;;;;;3.20;3.10;;;13.50;96.60;;;;;;5092548;28;20392;-50
2021/06/09 04:45:44;;;;;;;3.00;2.83;;;13.40;97.40;;;;;;5092828;28;20036;-51
2021/06/09 04:48:19;;;;;;;4.45;4.10;;;13.20;97.70;;;;;;5092900;28;20028;-48
2021/06/09 04:50:49;;;;;;;3.20;3.00;;;13.00;98.00;;;;;;5092895;28;20066;-49
2021/06/09 04:53:21;;;;;;;3.20;3.10;;;12.90;98.20;;;;;;5092869;28;20024;-48
2021/06/09 04:55:54;;;;;;;3.10;3.00;;;12.80;98.10;;;;;;5092766;28;20036;-50
2021/06/09 04:58:24;;;;;;;3.38;3.28;;;12.70;98.90;;;;;;5093019;28;20032;-53
2021/06/09 05:00:52;;;;;;;3.67;3.58;;;12.50;98.50;;;;;;5092645;28;20055;-52
2021/06/09 05:03:20;;;;;;;3.50;3.30;;;12.50;98.80;;;;;;5092706;28;20028;-48
2021/06/09 05:05:50;;;;;;;3.40;3.28;;;12.50;99.00;;;;;;5092582;28;20056;-49
2021/06/09 05:08:18;;;;;;;3.43;3.33;;;12.30;99.30;;;;;;5092736;28;20538;-55
2021/06/09 05:10:47;;;;;;;3.40;3.30;;;12.40;98.90;;;;;;5092666;28;20024;-50
2021/06/09 05:13:39;;;;;;;3.40;3.30;;;12.40;99.30;;;;;;5092723;28;20427;-50
2021/06/09 05:16:11;;;;;;;3.22;3.13;;;12.60;99.90;;;;;;5092022;28;20032;-49
2021/06/09 05:18:46;;;;;;;3.70;3.60;;;12.80;99.10;;;;;;5092925;28;20105;-53
2021/06/09 05:21:17;;;;;;;3.30;3.20;;;12.90;99.80;;;;;;5092873;28;20392;-52
2021/06/09 05:23:49;;;;;;;3.38;3.22;;;13.00;99.50;;;;;;5096196;28;20102;-51
2021/06/09 05:26:17;;;;;;;3.75;3.65;;;13.00;99.00;;;;;;5096293;28;20488;-51
2021/06/09 05:28:50;;;;;;;3.80;3.50;;;13.10;99.20;;;;;;5096270;28;20103;-50
2021/06/09 05:31:19;;;;;;;3.30;3.20;;;13.00;99.00;;;;;;5096369;28;20051;-50
2021/06/09 05:33:48;;;;;;;3.65;3.55;;;12.80;98.30;;;;;;5096181;28;20029;-53
2021/06/09 05:36:16;;;;;;;3.50;3.30;;;12.60;99.60;;;;;;5096182;28;20028;-50
2021/06/09 05:38:45;;;;;;;3.70;3.60;;;12.50;99.90;;;;;;5096035;28;20559;-51
2021/06/09 05:41:12;;;;;;;3.50;3.40;;;12.60;99.90;;;;;;5096036;28;20032;-53
2021/06/09 05:43:41;;;;;;;3.70;3.60;;;12.50;99.90;;;;;;5095833;28;20043;-52
2021/06/09 05:46:10;;;;;;;4.35;4.25;;;12.50;99.90;;;;;;5096167;28;20032;-53
2021/06/09 05:48:43;;;;;;;4.35;4.20;;;12.60;99.90;;;;;;5095922;28;20088;-52
2021/06/09 05:51:13;;;;;;;4.80;4.60;;;12.50;99.90;;;;;;5095941;28;20016;-51
2021/06/09 05:53:41;;;;;;;4.60;4.50;;;12.50;99.90;;;;;;5095843;28;20532;-50
2021/06/09 05:56:08;;;;;;;4.80;4.60;;;12.30;99.90;;;;;;5095666;28;20024;-49
2021/06/09 05:58:38;;;;;;;5.10;5.00;;;12.30;99.90;;;;;;5095493;28;20565;-52
2021/06/09 06:01:10;;;;;;;4.55;4.45;;;12.40;99.90;;;;;;5095820;28;20028;-47
2021/06/09 06:03:44;;;;;;;4.10;4.00;;;12.40;99.90;;;;;;5095645;28;20020;-48
2021/06/09 06:06:15;;;;;;;4.20;4.00;;;12.20;99.90;;;;;;5095444;28;20032;-53
2021/06/09 06:08:44;;;;;;;4.57;4.43;;;12.10;99.90;;;;;;5095603;28;20380;-52
2021/06/09 06:11:14;;;;;;;4.35;4.25;;;12.10;99.90;;;;;;5095480;28;20085;-50
2021/06/09 06:13:44;;;;;;;4.07;3.97;;;12.10;99.90;;;;;;5094146;28;20028;-50
2021/06/09 06:16:16;;;;;;;4.90;4.70;;;12.10;99.90;;;;;;5095366;28;20062;-52
2021/06/09 06:18:44;;;;;;;4.55;4.35;;;12.00;99.90;;;;;;5095209;28;20385;-54
2021/06/09 06:21:14;;;;;;;4.90;4.70;;;11.90;99.90;;;;;;5095254;28;20102;-54
2021/06/09 06:23:42;;;;;;;4.63;4.43;;;11.70;99.90;;;;;;5095314;28;20396;-52
2021/06/09 06:26:14;;;;;;;4.82;4.63;;;11.60;99.90;;;;;;5095046;28;20028;-48
2021/06/09 06:28:42;;;;;;;5.00;4.80;;;11.50;99.90;;;;;;5077097;28;20036;-48
2021/06/09 06:31:14;;;;;;;4.47;4.28;;;11.40;99.90;;;;;;5094984;28;20388;-48
2021/06/09 06:33:44;;;;;;;5.60;5.40;;;11.30;99.90;;;;;;5093976;28;20016;-49
2021/06/09 06:36:13;;;;;;;6.07;5.60;;;11.20;99.90;;;;;;5094959;28;20051;-50
2021/06/09 06:38:41;;;;;;;6.30;5.90;;;11.10;99.90;;;;;;5093554;28;20472;-51
2021/06/09 06:41:10;;;;;;;4.70;4.50;;;11.10;99.90;;;;;;5094913;28;20027;-50
2021/06/09 06:43:39;;;;;;;5.40;5.20;;;11.10;99.90;;;;;;5094607;28;20048;-50
2021/06/09 06:46:10;;;;;;;5.88;5.60;;;11.00;99.90;;;;;;5093574;28;20026;-53
2021/06/09 06:48:38;;;;;;;5.78;5.55;;;10.90;99.90;;;;;;5094724;28;20480;-50
2021/06/09 06:51:06;;;;;;;6.00;5.80;;;10.90;99.90;;;;;;5094707;28;20048;-49
2021/06/09 06:53:34;;;;;;;5.65;5.45;;;10.70;99.90;;;;;;5094624;28;20020;-48
2021/06/09 06:56:02;;;;;;;6.35;6.07;;;10.70;99.90;;;;;;5094636;28;20035;-48
2021/06/09 06:58:34;;;;;;;6.70;6.40;;;10.60;99.90;;;;;;5094756;28;20107;-49
2021/06/09 07:01:03;;;;;;;7.20;6.90;;;10.50;99.90;;;;;;5094763;28;20400;-52
2021/06/09 07:03:33;;;;;;;7.30;7.00;;;10.50;99.90;;;;;;5094693;28;20119;-49
2021/06/09 07:06:01;;;;;;;7.05;6.65;;;10.40;99.90;;;;;;5094617;28;20081;-52
2021/06/09 07:08:29;;;;;;;6.88;6.57;;;10.40;99.90;;;;;;5094557;28;20103;-50
2021/06/09 07:10:56;;;;;;;5.90;5.70;;;10.30;99.90;;;;;;5094948;28;20377;-51
2021/06/09 07:13:24;;;;;;;6.38;6.10;;;10.30;99.90;;;;;;5094359;28;20020;-50
2021/06/09 07:15:56;;;;;;;6.15;5.85;;;10.20;99.90;;;;;;5094513;28;20085;-49
2021/06/09 07:18:25;;;;;;;7.30;6.80;;;10.20;99.90;;;;;;5094199;28;20024;-50
2021/06/09 07:20:53;;;;;;;6.40;6.10;;;10.10;99.90;;;;;;5094089;28;20504;-50
2021/06/09 07:23:20;;;;;;;7.07;6.78;;;10.10;99.90;;;;;;5094120;28;20024;-51
2021/06/09 07:25:49;;;;;;;6.10;5.90;;;10.00;99.90;;;;;;5094234;28;20099;-48
2021/06/09 07:28:22;;;;;;;6.35;6.05;;;10.00;99.90;;;;;;5092741;28;20024;-51
2021/06/09 07:30:52;;;;;;;6.80;6.50;;;10.00;99.90;;;;;;5094124;28;20020;-53
2021/06/09 07:33:20;;;;;;;6.68;6.30;;;10.00;99.90;;;;;;5093964;28;20024;-53
2021/06/09 07:35:47;;;;;;;7.03;6.78;;;10.00;99.90;;;;;;5093953;28;20136;-51
2021/06/09 07:38:25;;;;;;;7.35;7.03;;;10.00;99.90;;;;;;5093814;28;20034;-52
2021/06/09 07:40:59;;;;;;;7.32;7.03;;;10.00;99.90;;;;;;5093937;28;20028;-52
2021/06/09 07:43:30;;;;;;;7.22;6.82;;;9.90;99.90;;;;;;5092207;28;20071;-51
2021/06/09 07:45:59;;;;;;;7.60;7.35;;;9.80;99.90;;;;;;5093236;28;20020;-48
2021/06/09 07:48:28;;;;;;;8.68;8.38;;;9.80;99.90;;;;;;5093498;28;20526;-53
2021/06/09 07:51:16;;;;;;;8.43;8.13;;;9.70;99.90;;;;;;5093605;28;20023;-48
2021/06/09 07:53:44;;;;;;;9.55;8.95;;;9.60;99.90;;;;;;5093573;28;20361;-52
2021/06/09 07:56:15;;;;;;;10.23;9.82;;;9.50;99.90;;;;;;5093570;28;20144;-50
2021/06/09 07:58:43;;;;;;;10.00;9.60;;;9.50;99.90;;;;;;5093307;28;20028;-48
2021/06/09 08:01:11;;;;;;;10.40;10.00;;;9.50;99.90;;;;;;5093619;28;20066;-52
2021/06/09 08:03:39;;;;;;;10.80;10.35;;;9.40;99.90;;;;;;5093443;28;20024;-49
2021/06/09 08:06:07;;;;;;;10.98;10.57;;;9.30;99.90;;;;;;5093381;28;20059;-54
2021/06/09 08:08:35;;;;;;;11.15;10.63;;;9.30;99.90;;;;;;5093352;28;20107;-49
2021/06/09 08:11:02;;;;;;;11.23;10.73;;;9.20;99.90;;;;;;5093327;28;20439;-50
2021/06/09 08:13:31;;;;;;;11.40;10.90;;;9.20;99.90;;;;;;5093503;28;20111;-50
2021/06/09 08:15:58;;;;;;;11.40;10.90;;;9.10;99.90;;;;;;5093216;28;20099;-50
2021/06/09 08:18:27;;;;;;;12.15;11.65;;;9.10;99.90;;;;;;5091920;28;20076;-51
2021/06/09 08:21:06;;;;;;;11.40;10.90;;;9.10;99.90;;;;;;5093016;28;20020;-50
2021/06/09 08:23:34;;;;;;;11.55;11.05;;;9.10;99.90;;;;;;5093053;28;20035;-47
2021/06/09 08:26:03;;;;;;;11.20;10.80;;;9.10;99.90;;;;;;5093228;28;20038;-50
2021/06/09 08:28:35;;;;;;;11.70;11.18;;;9.10;99.90;;;;;;5093288;28;20029;-49
2021/06/09 08:31:07;;;;;;;10.73;10.32;;;9.10;99.90;;;;;;5093100;28;20028;-47
2021/06/09 08:33:37;;;;;;;12.00;11.32;;;9.10;99.90;;;;;;5093100;28;20016;-50
2021/06/09 08:36:05;;;;;;;12.10;11.60;;;9.00;99.90;;;;;;5093024;28;20024;-50
2021/06/09 08:38:33;;;;;;;11.68;11.27;;;9.00;99.90;;;;;;5093135;28;20047;-49
2021/06/09 08:41:01;;;;;;;12.40;11.90;;;9.00;99.90;;;;;;5093052;28;20028;-51
2021/06/09 08:43:32;;;;;;;13.20;12.70;;;9.00;99.90;;;;;;5092732;28;20040;-52
2021/06/09 08:45:59;;;;;;;;;;;9.00;99.90;;;;;;5093349;28;20052;-49
2021/06/09 08:48:28;;;;;;;13.40;12.80;;;9.00;99.90;;;;;;5092866;28;19904;-51
2021/06/09 08:50:57;;;;;;;13.35;12.75;;;9.00;99.90;;;;;;5092886;28;20027;-49
2021/06/09 08:53:25;;;;;;;13.38;12.88;;;9.10;99.90;;;;;;5092855;28;20494;-48
2021/06/09 08:55:52;;;;;;;12.68;12.18;;;9.00;99.90;;;;;;5092747;28;20481;-52
2021/06/09 08:58:21;;;;;;;12.98;12.43;;;9.00;99.90;;;;;;5095625;28;20020;-50
2021/06/09 09:00:48;;;;;;;11.68;11.23;;;9.00;99.90;;;;;;5097341;28;20103;-48
2021/06/09 09:03:15;;;;;;;12.20;11.70;;;9.00;99.90;;;;;;5097246;28;20085;-46
2021/06/09 09:05:43;;;;;;;12.05;11.55;;;9.00;99.90;;;;;;5096706;28;20102;-49
2021/06/09 09:08:10;;;;;;;12.70;12.10;;;9.00;99.90;;;;;;5097362;28;20089;-51
2021/06/09 09:10:38;;;;;;;11.45;11.05;;;9.00;99.90;;;;;;5097011;28;20104;-51
2021/06/09 09:13:05;;;;;;;12.02;11.52;;;9.00;99.90;;;;;;5096708;28;20016;-47
2021/06/09 09:15:33;;;;;;;11.35;10.95;;;8.90;99.90;;;;;;5095330;28;20039;-50
2021/06/09 09:18:03;;;;;;;11.77;11.18;;;8.90;99.90;;;;;;5096497;28;20028;-49
2021/06/09 09:20:40;;;;;;;11.80;11.30;;;8.90;99.90;;;;;;5096602;28;20472;-50
2021/06/09 09:23:28;;;;;;;11.50;11.00;;;8.90;99.90;;;;;;5096431;28;20028;-49
2021/06/09 09:25:57;;;;;;;11.93;11.35;;;8.90;99.90;;;;;;5096388;28;20060;-52
2021/06/09 09:28:33;;;;;;;11.40;11.00;;;8.90;99.90;;;;;;5096342;28;20024;-48
2021/06/09 09:31:11;;;;;;;11.88;11.38;;;8.90;99.90;;;;;;5096576;28;20060;-49
2021/06/09 09:33:39;;;;;;;11.75;11.32;;;8.80;99.90;;;;;;5094919;28;20037;-50
2021/06/09 09:36:30;;;;;;;11.27;10.77;;;8.80;99.90;;;;;;5096199;28;20031;-52
2021/06/09 09:38:59;;;;;;;11.07;10.57;;;8.80;99.90;;;;;;5096244;28;20079;-52
2021/06/09 09:41:35;;;;;;;11.20;10.70;;;8.80;99.90;;;;;;5095997;28;20055;-49
2021/06/09 09:44:05;;;;;;;11.38;10.88;;;8.80;99.90;;;;;;5095843;28;20040;-47
2021/06/09 09:46:38;;;;;;;10.63;10.13;;;8.80;99.90;;;;;;5095835;28;20036;-51
2021/06/09 09:49:13;;;;;;;10.15;9.65;;;8.80;99.90;;;;;;5095781;28;20024;-49
2021/06/09 09:51:55;;;;;;;9.85;9.55;;;8.70;99.90;;;;;;5095825;28;20028;-49
2021/06/09 09:54:31;;;;;;;10.25;9.90;;;8.60;99.90;;;;;;5095822;28;20104;-50
2021/06/09 09:57:00;;;;;;;11.65;11.15;;;8.60;99.90;;;;;;5095531;28;20073;-52
2021/06/09 09:59:28;;;;;;;11.05;10.57;;;8.60;99.90;;;;;;5095500;28;20024;-50
2021/06/09 10:01:57;;;;;;;11.13;10.68;;;8.60;99.90;;;;;;5094464;28;20103;-51
2021/06/09 10:04:29;;;;;;;10.30;9.90;;;8.60;99.90;;;;;;5095623;28;20046;-53
2021/06/09 10:06:57;;;;;;;10.60;10.20;;;8.60;99.90;;;;;;5095825;28;20036;-48
2021/06/09 10:09:36;;;;;;;10.63;10.23;;;8.50;99.90;;;;;;5095073;28;20034;-47
2021/06/09 10:12:12;;;;;;;10.88;10.45;;;8.50;99.90;;;;;;5095332;28;20056;-46
2021/06/09 10:14:50;;;;;;;11.90;11.40;;;8.50;99.90;;;;;;5095305;28;20020;-48
2021/06/09 10:17:25;;;;;;;12.00;11.60;;;8.50;99.90;;;;;;5095257;28;20532;-48
2021/06/09 10:19:58;;;;;;;12.07;11.57;;;8.50;99.90;;;;;;5095071;28;20028;-50
2021/06/09 10:22:36;;;;;;;11.95;11.18;;;8.40;99.90;;;;;;5095435;28;20032;-48
2021/06/09 10:25:11;;;;;;;10.52;10.13;;;8.40;99.90;;;;;;5094936;28;20496;-50
2021/06/09 10:27:40;;;;;;;11.13;10.73;;;8.40;99.90;;;;;;5095037;28;20165;-52
2021/06/09 10:30:28;;;;;;;10.80;10.40;;;8.40;99.90;;;;;;5094967;28;20050;-47
2021/06/09 10:32:58;;;;;;;11.35;10.95;;;8.50;99.90;;;;;;5095086;28;20504;-51
2021/06/09 10:35:41;;;;;;;11.82;11.43;;;8.40;99.90;;;;;;5094876;28;20031;-47
2021/06/09 10:38:10;;;;;;;12.13;11.65;;;8.30;99.90;;;;;;5094887;28;20024;-47
2021/06/09 10:40:37;;;;;;;12.10;11.70;;;8.30;99.90;;;;;;5094909;28;20024;-48
2021/06/09 10:43:06;;;;;;;12.00;11.60;;;8.20;99.90;;;;;;5094721;28;20040;-48
2021/06/09 10:45:39;;;;;;;12.10;11.70;;;8.30;99.90;;;;;;5094585;28;20028;-53
2021/06/09 10:48:08;;;;;;;12.35;11.95;;;8.20;99.90;;;;;;5093468;28;20055;-52
2021/06/09 10:50:36;;;;;;;13.20;12.52;;;8.20;99.90;;;;;;5094552;28;20484;-50
2021/06/09 10:53:06;;;;;;;12.80;12.30;;;8.20;99.90;;;;;;5094495;28;20012;-54
2021/06/09 10:55:34;;;;;;;13.82;13.13;;;8.20;99.90;;;;;;5094699;28;20031;-51
2021/06/09 10:58:02;;;;;;;13.65;13.05;;;8.20;99.90;;;;;;5094486;28;20055;-52
2021/06/09 11:00:30;;;;;;;12.77;12.27;;;8.10;99.90;;;;;;5094432;28;20024;-48
2021/06/09 11:02:57;;;;;;;11.27;10.88;;;8.00;99.90;;;;;;5094405;28;20069;-49
2021/06/09 11:05:27;;;;;;;11.27;10.88;;;8.10;99.90;;;;;;5094520;28;20103;-53
2021/06/09 11:07:55;;;;;;;11.65;11.25;;;8.20;99.90;;;;;;5092965;28;20047;-50
2021/06/09 11:10:31;;;;;;;12.90;12.30;;;8.20;99.90;;;;;;5093849;28;20020;-51
2021/06/09 11:12:59;;;;;;;12.48;11.98;;;8.00;99.90;;;;;;5094077;28;20016;-52
2021/06/09 11:15:34;;;;;;;13.43;12.82;;;8.00;99.90;;;;;;5094348;28;20028;-52
2021/06/09 11:18:13;;;;;;;12.27;11.77;;;8.00;99.90;;;;;;5094103;28;20028;-49
2021/06/09 11:20:49;;;;;;;12.77;12.18;;;8.00;99.90;;;;;;5093061;28;20143;-50
2021/06/09 11:23:25;;;;;;;13.35;12.85;;;7.90;99.90;;;;;;5094156;28;20116;-51
2021/06/09 11:25:52;;;;;;;13.50;12.90;;;7.90;99.90;;;;;;5093773;28;20086;-50
2021/06/09 11:28:34;;;;;;;14.18;13.57;;;7.80;99.90;;;;;;5093847;28;20024;-51
2021/06/09 11:31:06;;;;;;;13.30;12.80;;;7.80;99.90;;;;;;5093853;28;20111;-51
2021/06/09 11:33:54;;;;;;;14.32;13.73;;;7.60;99.90;;;;;;5093713;28;20016;-49
2021/06/09 11:36:21;;;;;;;14.48;13.98;;;7.70;99.90;;;;;;5093763;28;20506;-49
2021/06/09 11:38:54;;;;;;;14.40;13.90;;;7.70;99.90;;;;;;5093683;28;20027;-53
2021/06/09 11:41:42;;;;;;;14.07;13.48;;;7.70;99.90;;;;;;5093788;28;20035;-54
2021/06/09 11:44:24;;;;;;;15.15;14.45;;;7.70;99.90;;;;;;5093431;28;20055;-52
2021/06/09 11:46:52;;;;;;;15.43;14.73;;;7.70;99.90;;;;;;5093718;28;20039;-51
2021/06/09 11:49:25;;;;;;;13.60;13.00;;;7.70;99.90;;;;;;5093702;28;20093;-54
2021/06/09 11:52:03;;;;;;;13.02;12.57;;;7.80;99.90;;;;;;5093731;28;20035;-53
2021/06/09 11:54:33;;;;;;;14.07;13.55;;;7.70;99.90;;;;;;5093613;28;20385;-53
2021/06/09 11:57:06;;;;;;;14.60;13.95;;;7.80;99.90;;;;;;5093686;28;20016;-54
2021/06/09 11:59:36;;;;;;;13.55;13.02;;;7.70;99.90;;;;;;5093828;28;20016;-51
2021/06/09 12:02:16;;;;;;;14.00;13.50;;;7.80;99.90;;;;;;5093932;28;20020;-52
2021/06/09 12:04:46;;;;;;;13.07;12.55;;;7.70;99.90;;;;;;5093390;28;20034;-51
2021/06/09 12:07:24;;;;;;;12.25;11.77;;;7.70;99.90;;;;;;5093719;28;20020;-53
2021/06/09 12:09:55;;;;;;;12.80;12.30;;;7.70;99.90;;;;;;5092214;28;20028;-52
2021/06/09 12:12:31;;;;;;;12.70;12.20;;;7.70;99.90;;;;;;5093426;28;20028;-51
2021/06/09 12:15:05;;;;;;;12.63;12.13;;;7.60;99.90;;;;;;5093459;28;20085;-49
2021/06/09 12:17:39;;;;;;;12.75;12.25;;;7.70;99.90;;;;;;5092123;28;20062;-52
2021/06/09 12:20:13;;;;;;;12.65;12.25;;;7.60;99.90;;;;;;5093341;28;20035;-53
2021/06/09 12:22:45;;;;;;;12.65;12.25;;;7.50;99.90;;;;;;5093445;28;20481;-55
2021/06/09 12:25:17;;;;;;;11.70;11.30;;;7.60;99.90;;;;;;5093247;28;20024;-53
2021/06/09 12:28:06;;;;;;;12.25;11.85;;;7.60;99.90;;;;;;5093296;28;20022;-56
2021/06/09 12:30:36;;;;;;;12.68;12.18;;;7.60;99.90;;;;;;5093252;28;20492;-53
2021/06/09 12:33:03;;;;;;;11.77;11.38;;;7.50;99.90;;;;;;5093267;28;20025;-51
2021/06/09 12:35:31;;;;;;;12.40;11.90;;;7.40;99.90;;;;;;5093409;28;20111;-53
2021/06/09 12:38:01;;;;;;;12.32;11.93;;;7.40;99.90;;;;;;5093223;28;20048;-56
2021/06/09 12:40:31;;;;;;;12.40;12.00;;;7.40;99.90;;;;;;5093215;28;20023;-52
2021/06/09 12:43:13;;;;;;;11.47;11.07;;;7.40;99.90;;;;;;5092891;28;20484;-52
2021/06/09 12:45:45;;;;;;;11.88;11.45;;;7.40;99.90;;;;;;5093027;28;20481;-54
2021/06/09 12:48:20;;;;;;;11.77;11.38;;;7.40;99.90;;;;;;5093085;28;20059;-54
2021/06/09 12:50:52;;;;;;;11.07;10.68;;;7.30;99.90;;;;;;5093267;28;20024;-52
2021/06/09 12:53:24;;;;;;;12.07;11.68;;;7.30;99.90;;;;;;5093101;28;20023;-52
2021/06/09 12:55:53;;;;;;;11.85;11.45;;;7.30;99.90;;;;;;5092940;28;20369;-51
2021/06/09 12:58:23;;;;;;;12.35;11.95;;;7.30;99.90;;;;;;5092908;28;20034;-53
2021/06/09 13:00:55;;;;;;;12.07;11.67;;;7.30;99.90;;;;;;5092910;28;20115;-52
2021/06/09 13:03:35;;;;;;;11.45;11.05;;;7.30;99.90;;;;;;5092924;28;20028;-51